Seiyu Maru — JD3189 — position and weather

sailwx.info

Track history (hours):
 
Tides and Currents Weather Stations Pressure Air Temp Water Temp Dewpoint Dewpoint Depression Visibility Wind Speed Wind Dir Waves Ship Positions

Seiyu Maru

Last reported at 2014-Oct-11 03:27 UTC. Time now 2014-Oct-26 06:04 UTC.
Position N 34°36' E 134°55'.
Warning: this ship's position is 15 days out of date.

Length 75 m; draft 4.5 m.

Type: Cargo ship. MMSI: 431002433.

Date/timePositionNaut miles runAvg speedWind from/ knotsBaromVisibWave heightAir tempDewpointWater temp
2014-Oct-11 03:27N 34°36' E 134°55'1011.7
2014-Oct-11 02:33N 34°37' E 135°08'5 4.8
2014-Oct-11 01:30N 34°41' E 135°12'0 0.2
2014-Oct-11 00:31N 34°40' E 135°12'2 1.7
2014-Oct-10 23:32N 34°39' E 135°12'0 0.0
2014-Oct-10 22:33N 34°39' E 135°12'9 9.3
2014-Oct-10 21:33N 34°36' E 135°23'4 4.4
2014-Oct-10 20:33N 34°35' E 135°28'0 0.0
2014-Oct-10 05:25N 34°35' E 135°28'1 0.9
2014-Oct-10 04:12N 34°34' E 135°27'0 0.0
2014-Oct-10 03:24N 34°34' E 135°27'0 0.0
2014-Oct-10 02:24N 34°34' E 135°27'0 0.0
2014-Oct-10 01:24N 34°34' E 135°27'0 0.0
2014-Oct-10 00:12N 34°34' E 135°27'0 0.4
2014-Oct-09 23:28N 34°35' E 135°27'0 0.1
2014-Oct-09 21:18N 34°35' E 135°27'0 0.0
2014-Oct-09 18:30N 34°35' E 135°27'0 0.0
2014-Oct-09 17:31N 34°35' E 135°27'7 6.9
2014-Oct-09 16:33N 34°34' E 135°19'1111.0
2014-Oct-09 15:34N 34°25' E 135°10'1110.1
2014-Oct-09 14:28N 34°16' E 135°03'4 4.1
2014-Oct-09 13:33N 34°14' E 135°07'0 0.0
2014-Oct-09 12:33N 34°15' E 135°07'0 0.0
2014-Oct-09 11:33N 34°14' E 135°07'0 0.0
2014-Oct-09 10:32N 34°15' E 135°07'0 0.0
2014-Oct-09 09:33N 34°15' E 135°07'0 0.0
2014-Oct-09 08:33N 34°15' E 135°07'0 0.1
2014-Oct-09 07:33N 34°14' E 135°07'9 8.9
2014-Oct-09 06:32N 34°06' E 135°02'  
Track history (hours):
 
Tides and Currents Weather Stations Pressure Air Temp Water Temp Dewpoint Dewpoint Depression Visibility Wind Speed Wind Dir Waves Ship Positions

Seiyu Maru

Last reported at 2014-Oct-11 03:27 UTC. Time now 2014-Oct-26 06:04 UTC.
Position N 34°36' E 134°55'.
Warning: this ship's position is 15 days out of date.

Length 75 m; draft 4.5 m.

Type: Cargo ship. MMSI: 431002433.

Date/timePositionNaut miles runAvg speedWind from/ knotsBaromVisibWave heightAir tempDewpointWater temp
2014-Oct-11 03:27N 34°36' E 134°55'1011.7
2014-Oct-11 02:33N 34°37' E 135°08'5 4.8
2014-Oct-11 01:30N 34°41' E 135°12'0 0.2
2014-Oct-11 00:31N 34°40' E 135°12'2 1.7
2014-Oct-10 23:32N 34°39' E 135°12'0 0.0
2014-Oct-10 22:33N 34°39' E 135°12'9 9.3
2014-Oct-10 21:33N 34°36' E 135°23'4 4.4
2014-Oct-10 20:33N 34°35' E 135°28'0 0.0
2014-Oct-10 05:25N 34°35' E 135°28'1 0.9
2014-Oct-10 04:12N 34°34' E 135°27'0 0.0
2014-Oct-10 03:24N 34°34' E 135°27'0 0.0
2014-Oct-10 02:24N 34°34' E 135°27'0 0.0
2014-Oct-10 01:24N 34°34' E 135°27'0 0.0
2014-Oct-10 00:12N 34°34' E 135°27'0 0.4
2014-Oct-09 23:28N 34°35' E 135°27'0 0.1
2014-Oct-09 21:18N 34°35' E 135°27'0 0.0
2014-Oct-09 18:30N 34°35' E 135°27'0 0.0
2014-Oct-09 17:31N 34°35' E 135°27'7 6.9
2014-Oct-09 16:33N 34°34' E 135°19'1111.0
2014-Oct-09 15:34N 34°25' E 135°10'1110.1
2014-Oct-09 14:28N 34°16' E 135°03'4 4.1
2014-Oct-09 13:33N 34°14' E 135°07'0 0.0
2014-Oct-09 12:33N 34°15' E 135°07'0 0.0
2014-Oct-09 11:33N 34°14' E 135°07'0 0.0
2014-Oct-09 10:32N 34°15' E 135°07'0 0.0
2014-Oct-09 09:33N 34°15' E 135°07'0 0.0
2014-Oct-09 08:33N 34°15' E 135°07'0 0.1
2014-Oct-09 07:33N 34°14' E 135°07'9 8.9
2014-Oct-09 06:32N 34°06' E 135°02'  

Dump ship's entire track history